»·PEaware :: N650EJ KRNO-KTVL

N650EJ :: KRNO-KTVL

FLIGHT INFORMATION

Flight Status: Arrived
Operator: Privately registered:
United States
More flights under this callsign
Pilot: Maxwell R. (25989)
Aircraft: Unknown
(LEGA)
More flights by this aircraft type
Origin: KRNO Reno/Tahoe Intl
United States
Destination: KTVL Lake Tahoe
United States
More flights between these airports :: More routes between these airports
Route: +FMG8 FMG
File this flight plan on PilotEdge
Remarks:
Altitude:
(Current/Filed)
13,000ft
Speed:
(Current/Filed)
250kts
Departed: 29-Aug-19 07:25 AM
Arrived: 29-Aug-19 07:58 AM
Distance/Time
Traveled:
38nm/0:33
Distance/Time
To Go:
Arrived

Flight Plot

Page will automatically refresh every two minutes.

Flight plan parsing failed; only flown route is shown


Map Options




Map Legend


Flown Route
Filed Route
Departure Airport
Arrival Airport
Navaid (VOR, NDB)
Fix

Horizontal Profiles

Position Reports

Time Latitude Longitude Heading Altitude Ground
Speed
29-Aug-19 07:06 39.498692 -119.764707 180 4404ft 0kts
29-Aug-19 07:07 39.498692 -119.764707 180 4404ft 0kts
29-Aug-19 07:08 39.498692 -119.764707 180 4404ft 0kts
29-Aug-19 07:09 39.498692 -119.764707 180 4404ft 0kts
29-Aug-19 07:10 39.498692 -119.764707 180 4404ft 0kts
29-Aug-19 07:11 39.498692 -119.764707 180 4404ft 0kts
29-Aug-19 07:12 39.498692 -119.764707 180 4404ft 0kts
29-Aug-19 07:13 39.498692 -119.764707 180 4404ft 0kts
29-Aug-19 07:14 39.498692 -119.764707 180 4404ft 0kts
29-Aug-19 07:15 39.498692 -119.764707 180 4404ft 0kts
29-Aug-19 07:16 39.498692 -119.764707 180 4404ft 0kts
29-Aug-19 07:17 39.498692 -119.764707 180 4404ft 0kts
29-Aug-19 07:18 39.498387 -119.765089 264 4403ft 5kts
29-Aug-19 07:19 39.501294 -119.765705 340 4406ft 12kts
29-Aug-19 07:20 39.504690 -119.765773 358 4406ft 15kts
29-Aug-19 07:21 39.508454 -119.765763 359 4410ft 18kts
29-Aug-19 07:22 39.511675 -119.765143 0 4413ft 14kts
29-Aug-19 07:24 39.513733 -119.767278 269 4417ft 11kts
29-Aug-19 07:25 39.502332 -119.769249 180 4408ft 133kts
29-Aug-19 07:26 39.458172 -119.769313 181 6653ft 164kts
29-Aug-19 07:27 39.431666 -119.728066 62 7939ft 265kts
29-Aug-19 07:28 39.501625 -119.684183 36 10865ft 305kts
29-Aug-19 07:29 39.494017 -119.587466 153 11978ft 326kts
29-Aug-19 07:30 39.410798 -119.622870 211 12009ft 352kts
29-Aug-19 07:31 39.324036 -119.685939 209 12764ft 346kts
29-Aug-19 07:32 39.310207 -119.787081 313 11972ft 322kts
29-Aug-19 07:33 39.393547 -119.796431 3 12001ft 299kts
29-Aug-19 07:34 39.474280 -119.787079 3 11978ft 298kts
29-Aug-19 07:35 39.568096 -119.776584 3 12990ft 348kts
29-Aug-19 07:36 39.647280 -119.744296 67 13025ft 280kts
29-Aug-19 07:37 39.624362 -119.665735 90 13093ft 247kts
29-Aug-19 07:38 39.676628 -119.624265 7 13013ft 244kts
29-Aug-19 07:39 39.736718 -119.628937 288 13032ft 216kts
29-Aug-19 07:40 39.700222 -119.668176 193 13037ft 212kts
29-Aug-19 07:41 39.637641 -119.667659 176 13024ft 242kts
29-Aug-19 07:42 39.574074 -119.660263 178 12991ft 210kts
29-Aug-19 07:43 39.520194 -119.658327 207 12950ft 176kts
29-Aug-19 07:43 39.484979 -119.680471 205 12765ft 170kts
29-Aug-19 07:45 39.431897 -119.712184 206 13016ft 189kts
29-Aug-19 07:45 39.391130 -119.734547 205 12953ft 192kts
29-Aug-19 07:46 39.343557 -119.764228 208 13006ft 189kts
29-Aug-19 07:48 39.286264 -119.801615 207 13114ft 202kts
29-Aug-19 07:48 39.244306 -119.828050 207 13227ft 202kts
29-Aug-19 07:50 39.186821 -119.868752 213 12670ft 203kts
29-Aug-19 07:50 39.149753 -119.898822 214 11801ft 176kts
29-Aug-19 07:51 39.111153 -119.930083 212 10876ft 158kts
29-Aug-19 07:52 39.072728 -119.959023 211 9786ft 158kts
29-Aug-19 07:53 39.030627 -119.971621 187 9625ft 163kts
29-Aug-19 07:54 38.985458 -119.978574 192 7859ft 160kts
29-Aug-19 07:55 38.941832 -119.981925 185 7194ft 160kts
29-Aug-19 07:56 38.900628 -119.993341 193 6272ft 132kts
29-Aug-19 07:57 38.883664 -119.998265 193 6263ft 28kts
29-Aug-19 07:58 38.884002 -119.999232 13 6265ft 10kts

Navigation Log

Ident Type
Flight plan parsing failed, navigation log unavailable